KVPS/VPS METAR and TAF weather

Enter ICAO airport designator
Station Type Date Time Source
KVPS METAR 2020/09/23 19:56 UTC NOAA

KVPS 231956Z AUTO 14013KT 10SM FEW160 FEW190 28/21 A2995 RMK AO2 SLP148 T02810214 $


Station Type Date Time Source
KVPS Decoded METAR 2020/09/23 19:56 UTC NOAA

Valparaiso / Eglin Air Force Base, FL, United States (KVPS) 30-29N 086-31W 29M
Sep 23, 2020 - 03:56 PM EDT / 2020.09.23 1956 UTC
Wind: from the SE (140 degrees) at 15 MPH (13 KT):0
Visibility: 10 mile(s):0
Sky conditions: mostly clear
Temperature: 82.6 F (28.1 C)
Dew Point: 70.5 F (21.4 C)
Relative Humidity: 67%
Pressure (altimeter): 29.95 in. Hg (1014 hPa)
ob: KVPS 231956Z AUTO 14013KT 10SM FEW160 FEW190 28/21 A2995 RMK AO2 SLP148 T02810214
cycle: 20

Station Type Date Time Source
KVPS TAF 2020/09/23 17:06 UTC NOAA

TAF KVPS 231700Z 2317/2423 13015G20KT 9999 SCT025 BKN170 BKN250 QNH2992INS
BECMG 2322/2323 13010G15KT 9999 SCT030 BKN110 BKN220 QNH2994INS
BECMG 2407/2408 12012KT 9999 VCSH SCT020 BKN040 BKN120 OVC200 QNH2988INS
BECMG 2411/2412 13014KT 9000 -SHRA BKN020 BKN120 OVC200 QNH2985INS
BECMG 2415/2416 15015G20KT 9000 -SHRA VCTS BKN025CB BKN120 OVC200 QNH2986INS
TEMPO 2416/2422 15015G25KT 4800 TSRA BKN020CB TX29/2320Z TN22/2411Z

Example: see airport list